sensor_id;sensor_type;location;lat;lon;timestamp;pressure;altitude;pressure_sealevel;temperature
20733;BMP180;10527;52.124;5.196;2023-07-31T00:00:15;100808.00;;;27.60
20733;BMP180;10527;52.124;5.196;2023-07-31T00:02:42;100804.00;;;27.60
20733;BMP180;10527;52.124;5.196;2023-07-31T00:05:09;100797.00;;;27.60
20733;BMP180;10527;52.124;5.196;2023-07-31T00:07:36;100799.00;;;27.50
20733;BMP180;10527;52.124;5.196;2023-07-31T00:10:03;100800.00;;;27.50
20733;BMP180;10527;52.124;5.196;2023-07-31T00:12:30;100798.00;;;27.50
20733;BMP180;10527;52.124;5.196;2023-07-31T00:14:57;100790.00;;;27.50
20733;BMP180;10527;52.124;5.196;2023-07-31T00:17:24;100787.00;;;27.50
20733;BMP180;10527;52.124;5.196;2023-07-31T00:19:51;100785.00;;;27.50
20733;BMP180;10527;52.124;5.196;2023-07-31T00:22:18;100789.00;;;27.50
20733;BMP180;10527;52.124;5.196;2023-07-31T00:24:45;100793.00;;;27.50
20733;BMP180;10527;52.124;5.196;2023-07-31T00:27:12;100785.00;;;27.60
20733;BMP180;10527;52.124;5.196;2023-07-31T00:29:39;100786.00;;;27.60
20733;BMP180;10527;52.124;5.196;2023-07-31T00:32:06;100782.00;;;27.60
20733;BMP180;10527;52.124;5.196;2023-07-31T00:34:33;100776.00;;;27.70
20733;BMP180;10527;52.124;5.196;2023-07-31T00:37:00;100778.00;;;27.70
20733;BMP180;10527;52.124;5.196;2023-07-31T00:39:27;100786.00;;;27.70
20733;BMP180;10527;52.124;5.196;2023-07-31T00:41:54;100783.00;;;27.60
20733;BMP180;10527;52.124;5.196;2023-07-31T00:44:21;100790.00;;;27.60
20733;BMP180;10527;52.124;5.196;2023-07-31T00:46:48;100782.00;;;27.60
20733;BMP180;10527;52.124;5.196;2023-07-31T00:49:16;100777.00;;;27.60
20733;BMP180;10527;52.124;5.196;2023-07-31T00:51:45;100781.00;;;27.60
20733;BMP180;10527;52.124;5.196;2023-07-31T00:54:11;100780.00;;;27.60
20733;BMP180;10527;52.124;5.196;2023-07-31T00:56:40;100787.00;;;27.60
20733;BMP180;10527;52.124;5.196;2023-07-31T00:59:08;100792.00;;;27.60
20733;BMP180;10527;52.124;5.196;2023-07-31T01:01:35;100795.00;;;27.60
20733;BMP180;10527;52.124;5.196;2023-07-31T01:04:02;100788.00;;;27.60
20733;BMP180;10527;52.124;5.196;2023-07-31T01:07:14;100795.00;;;27.50
20733;BMP180;10527;52.124;5.196;2023-07-31T01:10:11;100785.00;;;27.40
20733;BMP180;10527;52.124;5.196;2023-07-31T01:12:40;100778.00;;;27.40
20733;BMP180;10527;52.124;5.196;2023-07-31T01:15:09;100781.00;;;27.40
20733;BMP180;10527;52.124;5.196;2023-07-31T01:17:42;100779.00;;;27.40
20733;BMP180;10527;52.124;5.196;2023-07-31T01:20:18;100773.00;;;27.40
20733;BMP180;10527;52.124;5.196;2023-07-31T01:23:26;100771.00;;;27.50
20733;BMP180;10527;52.124;5.196;2023-07-31T01:26:12;100769.00;;;27.50
20733;BMP180;10527;52.124;5.196;2023-07-31T01:29:11;100769.00;;;27.50
20733;BMP180;10527;52.124;5.196;2023-07-31T01:31:47;100769.00;;;27.50
20733;BMP180;10527;52.124;5.196;2023-07-31T01:34:18;100769.00;;;27.50
20733;BMP180;10527;52.124;5.196;2023-07-31T01:36:48;100771.00;;;27.50
20733;BMP180;10527;52.124;5.196;2023-07-31T01:39:15;100765.00;;;27.60
20733;BMP180;10527;52.124;5.196;2023-07-31T01:41:42;100773.00;;;27.60
20733;BMP180;10527;52.124;5.196;2023-07-31T01:44:09;100771.00;;;27.60
20733;BMP180;10527;52.124;5.196;2023-07-31T01:46:35;100784.00;;;27.60
20733;BMP180;10527;52.124;5.196;2023-07-31T01:49:02;100769.00;;;27.60
20733;BMP180;10527;52.124;5.196;2023-07-31T01:51:29;100769.00;;;27.60
20733;BMP180;10527;52.124;5.196;2023-07-31T01:54:01;100766.00;;;27.60
20733;BMP180;10527;52.124;5.196;2023-07-31T01:56:29;100763.00;;;27.60
20733;BMP180;10527;52.124;5.196;2023-07-31T01:58:56;100763.00;;;27.60
20733;BMP180;10527;52.124;5.196;2023-07-31T02:01:22;100757.00;;;27.60
20733;BMP180;10527;52.124;5.196;2023-07-31T02:03:50;100744.00;;;27.60
20733;BMP180;10527;52.124;5.196;2023-07-31T02:06:17;100741.00;;;27.60
20733;BMP180;10527;52.124;5.196;2023-07-31T02:08:44;100740.00;;;27.60
20733;BMP180;10527;52.124;5.196;2023-07-31T02:11:10;100741.00;;;27.50
20733;BMP180;10527;52.124;5.196;2023-07-31T02:13:37;100733.00;;;27.50
20733;BMP180;10527;52.124;5.196;2023-07-31T02:16:04;100720.00;;;27.50
20733;BMP180;10527;52.124;5.196;2023-07-31T02:18:31;100708.00;;;27.50
20733;BMP180;10527;52.124;5.196;2023-07-31T02:20:58;100718.00;;;27.50
20733;BMP180;10527;52.124;5.196;2023-07-31T02:23:25;100708.00;;;27.50
20733;BMP180;10527;52.124;5.196;2023-07-31T02:25:52;100711.00;;;27.50
20733;BMP180;10527;52.124;5.196;2023-07-31T02:28:18;100707.00;;;27.50
20733;BMP180;10527;52.124;5.196;2023-07-31T02:30:45;100704.00;;;27.50
20733;BMP180;10527;52.124;5.196;2023-07-31T02:33:14;100714.00;;;27.50
20733;BMP180;10527;52.124;5.196;2023-07-31T02:35:41;100717.00;;;27.50
20733;BMP180;10527;52.124;5.196;2023-07-31T02:38:08;100714.00;;;27.50
20733;BMP180;10527;52.124;5.196;2023-07-31T02:40:35;100713.00;;;27.50
20733;BMP180;10527;52.124;5.196;2023-07-31T02:43:01;100716.00;;;27.60
20733;BMP180;10527;52.124;5.196;2023-07-31T02:45:28;100705.00;;;27.60
20733;BMP180;10527;52.124;5.196;2023-07-31T02:47:55;100705.00;;;27.60
20733;BMP180;10527;52.124;5.196;2023-07-31T02:50:22;100705.00;;;27.60
20733;BMP180;10527;52.124;5.196;2023-07-31T02:52:49;100694.00;;;27.60
20733;BMP180;10527;52.124;5.196;2023-07-31T02:55:16;100692.00;;;27.70
20733;BMP180;10527;52.124;5.196;2023-07-31T02:57:43;100692.00;;;27.70
20733;BMP180;10527;52.124;5.196;2023-07-31T03:00:10;100689.00;;;27.70
20733;BMP180;10527;52.124;5.196;2023-07-31T03:02:37;100689.00;;;27.70
20733;BMP180;10527;52.124;5.196;2023-07-31T03:05:04;100692.00;;;27.70
20733;BMP180;10527;52.124;5.196;2023-07-31T03:07:31;100692.00;;;27.70
20733;BMP180;10527;52.124;5.196;2023-07-31T03:09:58;100686.00;;;27.70
20733;BMP180;10527;52.124;5.196;2023-07-31T03:12:25;100690.00;;;27.70
20733;BMP180;10527;52.124;5.196;2023-07-31T03:14:51;100683.00;;;27.70
20733;BMP180;10527;52.124;5.196;2023-07-31T03:17:18;100696.00;;;27.70
20733;BMP180;10527;52.124;5.196;2023-07-31T03:19:45;100685.00;;;27.70
20733;BMP180;10527;52.124;5.196;2023-07-31T03:22:12;100687.00;;;27.70
20733;BMP180;10527;52.124;5.196;2023-07-31T03:24:39;100682.00;;;27.70
20733;BMP180;10527;52.124;5.196;2023-07-31T03:27:06;100688.00;;;27.60
20733;BMP180;10527;52.124;5.196;2023-07-31T03:29:33;100681.00;;;27.70
20733;BMP180;10527;52.124;5.196;2023-07-31T03:31:59;100685.00;;;27.60
20733;BMP180;10527;52.124;5.196;2023-07-31T03:34:27;100687.00;;;27.60
20733;BMP180;10527;52.124;5.196;2023-07-31T03:36:54;100695.00;;;27.60
20733;BMP180;10527;52.124;5.196;2023-07-31T03:39:21;100686.00;;;27.60
20733;BMP180;10527;52.124;5.196;2023-07-31T03:41:47;100687.00;;;27.60
20733;BMP180;10527;52.124;5.196;2023-07-31T03:44:14;100681.00;;;27.60
20733;BMP180;10527;52.124;5.196;2023-07-31T03:46:41;100675.00;;;27.60
20733;BMP180;10527;52.124;5.196;2023-07-31T03:49:08;100674.00;;;27.70
20733;BMP180;10527;52.124;5.196;2023-07-31T03:51:35;100676.00;;;27.60
20733;BMP180;10527;52.124;5.196;2023-07-31T03:54:02;100675.00;;;27.70
20733;BMP180;10527;52.124;5.196;2023-07-31T03:56:29;100665.00;;;27.70
20733;BMP180;10527;52.124;5.196;2023-07-31T03:58:59;100662.00;;;27.60
20733;BMP180;10527;52.124;5.196;2023-07-31T04:01:26;100665.00;;;27.60
20733;BMP180;10527;52.124;5.196;2023-07-31T04:03:53;100664.00;;;27.60
20733;BMP180;10527;52.124;5.196;2023-07-31T04:06:20;100655.00;;;27.60
20733;BMP180;10527;52.124;5.196;2023-07-31T04:08:47;100645.00;;;27.60
20733;BMP180;10527;52.124;5.196;2023-07-31T04:11:14;100653.00;;;27.60
20733;BMP180;10527;52.124;5.196;2023-07-31T04:13:41;100648.00;;;27.60
20733;BMP180;10527;52.124;5.196;2023-07-31T04:16:08;100648.00;;;27.60
20733;BMP180;10527;52.124;5.196;2023-07-31T04:18:35;100633.00;;;27.60
20733;BMP180;10527;52.124;5.196;2023-07-31T04:21:01;100631.00;;;27.60
20733;BMP180;10527;52.124;5.196;2023-07-31T04:23:29;100633.00;;;27.60
20733;BMP180;10527;52.124;5.196;2023-07-31T04:25:56;100633.00;;;27.60
20733;BMP180;10527;52.124;5.196;2023-07-31T04:28:27;100618.00;;;27.60
20733;BMP180;10527;52.124;5.196;2023-07-31T04:30:54;100641.00;;;27.60
20733;BMP180;10527;52.124;5.196;2023-07-31T04:33:21;100643.00;;;27.50
20733;BMP180;10527;52.124;5.196;2023-07-31T04:35:52;100642.00;;;27.50
20733;BMP180;10527;52.124;5.196;2023-07-31T04:38:21;100646.00;;;27.50
20733;BMP180;10527;52.124;5.196;2023-07-31T04:40:49;100635.00;;;27.40
20733;BMP180;10527;52.124;5.196;2023-07-31T04:43:16;100645.00;;;27.40
20733;BMP180;10527;52.124;5.196;2023-07-31T04:45:46;100640.00;;;27.40
20733;BMP180;10527;52.124;5.196;2023-07-31T04:48:15;100633.00;;;27.40
20733;BMP180;10527;52.124;5.196;2023-07-31T04:50:42;100632.00;;;27.40
20733;BMP180;10527;52.124;5.196;2023-07-31T04:53:09;100629.00;;;27.40
20733;BMP180;10527;52.124;5.196;2023-07-31T04:55:35;100619.00;;;27.40
20733;BMP180;10527;52.124;5.196;2023-07-31T04:58:02;100615.00;;;27.40
20733;BMP180;10527;52.124;5.196;2023-07-31T05:00:29;100620.00;;;27.30
20733;BMP180;10527;52.124;5.196;2023-07-31T05:02:56;100605.00;;;27.30
20733;BMP180;10527;52.124;5.196;2023-07-31T05:05:23;100616.00;;;27.30
20733;BMP180;10527;52.124;5.196;2023-07-31T05:07:50;100607.00;;;27.30
20733;BMP180;10527;52.124;5.196;2023-07-31T05:10:17;100613.00;;;27.30
20733;BMP180;10527;52.124;5.196;2023-07-31T05:12:44;100618.00;;;27.30
20733;BMP180;10527;52.124;5.196;2023-07-31T05:15:11;100613.00;;;27.30
20733;BMP180;10527;52.124;5.196;2023-07-31T05:17:38;100622.00;;;27.30
20733;BMP180;10527;52.124;5.196;2023-07-31T05:20:05;100599.00;;;27.30
20733;BMP180;10527;52.124;5.196;2023-07-31T05:22:33;100616.00;;;27.20
20733;BMP180;10527;52.124;5.196;2023-07-31T05:24:59;100601.00;;;27.20
20733;BMP180;10527;52.124;5.196;2023-07-31T05:27:26;100597.00;;;27.20
20733;BMP180;10527;52.124;5.196;2023-07-31T05:29:53;100598.00;;;27.10
20733;BMP180;10527;52.124;5.196;2023-07-31T05:32:20;100596.00;;;27.10
20733;BMP180;10527;52.124;5.196;2023-07-31T05:34:47;100590.00;;;27.10
20733;BMP180;10527;52.124;5.196;2023-07-31T05:37:14;100583.00;;;27.10
20733;BMP180;10527;52.124;5.196;2023-07-31T05:39:41;100578.00;;;27.10
20733;BMP180;10527;52.124;5.196;2023-07-31T05:42:08;100570.00;;;27.10
20733;BMP180;10527;52.124;5.196;2023-07-31T05:44:35;100565.00;;;27.10
20733;BMP180;10527;52.124;5.196;2023-07-31T05:47:02;100574.00;;;27.10
20733;BMP180;10527;52.124;5.196;2023-07-31T05:49:29;100570.00;;;27.10
20733;BMP180;10527;52.124;5.196;2023-07-31T05:51:55;100562.00;;;27.10
20733;BMP180;10527;52.124;5.196;2023-07-31T05:54:22;100569.00;;;27.10
20733;BMP180;10527;52.124;5.196;2023-07-31T05:56:49;100556.00;;;27.10
20733;BMP180;10527;52.124;5.196;2023-07-31T05:59:16;100559.00;;;27.10
20733;BMP180;10527;52.124;5.196;2023-07-31T06:01:43;100557.00;;;27.10
20733;BMP180;10527;52.124;5.196;2023-07-31T06:04:10;100559.00;;;27.10
20733;BMP180;10527;52.124;5.196;2023-07-31T06:06:40;100550.00;;;27.20
20733;BMP180;10527;52.124;5.196;2023-07-31T06:09:07;100550.00;;;27.20
20733;BMP180;10527;52.124;5.196;2023-07-31T06:11:34;100550.00;;;27.20
20733;BMP180;10527;52.124;5.196;2023-07-31T06:14:01;100542.00;;;27.20
20733;BMP180;10527;52.124;5.196;2023-07-31T06:16:28;100548.00;;;27.20
20733;BMP180;10527;52.124;5.196;2023-07-31T06:18:55;100531.00;;;27.20
20733;BMP180;10527;52.124;5.196;2023-07-31T06:21:22;100541.00;;;27.20
20733;BMP180;10527;52.124;5.196;2023-07-31T06:23:49;100541.00;;;27.20
20733;BMP180;10527;52.124;5.196;2023-07-31T06:26:16;100541.00;;;27.20
20733;BMP180;10527;52.124;5.196;2023-07-31T06:28:43;100536.00;;;27.20
20733;BMP180;10527;52.124;5.196;2023-07-31T06:31:10;100542.00;;;27.20
20733;BMP180;10527;52.124;5.196;2023-07-31T06:33:37;100528.00;;;27.20
20733;BMP180;10527;52.124;5.196;2023-07-31T06:36:04;100530.00;;;27.30
20733;BMP180;10527;52.124;5.196;2023-07-31T06:38:31;100532.00;;;27.30
20733;BMP180;10527;52.124;5.196;2023-07-31T06:41:00;100518.00;;;27.30
20733;BMP180;10527;52.124;5.196;2023-07-31T06:43:26;100521.00;;;27.30
20733;BMP180;10527;52.124;5.196;2023-07-31T06:45:55;100519.00;;;27.40
20733;BMP180;10527;52.124;5.196;2023-07-31T06:48:22;100511.00;;;27.40
20733;BMP180;10527;52.124;5.196;2023-07-31T06:50:49;100509.00;;;27.40
20733;BMP180;10527;52.124;5.196;2023-07-31T06:53:16;100504.00;;;27.40
20733;BMP180;10527;52.124;5.196;2023-07-31T06:55:43;100509.00;;;27.40
20733;BMP180;10527;52.124;5.196;2023-07-31T06:58:09;100495.00;;;27.40
20733;BMP180;10527;52.124;5.196;2023-07-31T07:00:37;100493.00;;;27.40
20733;BMP180;10527;52.124;5.196;2023-07-31T07:03:03;100503.00;;;27.40
20733;BMP180;10527;52.124;5.196;2023-07-31T07:05:31;100498.00;;;27.40
20733;BMP180;10527;52.124;5.196;2023-07-31T07:07:58;100491.00;;;27.40
20733;BMP180;10527;52.124;5.196;2023-07-31T07:10:24;100496.00;;;27.50
20733;BMP180;10527;52.124;5.196;2023-07-31T07:12:52;100496.00;;;27.50
20733;BMP180;10527;52.124;5.196;2023-07-31T07:15:19;100495.00;;;27.50
20733;BMP180;10527;52.124;5.196;2023-07-31T07:17:46;100496.00;;;27.50
20733;BMP180;10527;52.124;5.196;2023-07-31T07:20:13;100494.00;;;27.50
20733;BMP180;10527;52.124;5.196;2023-07-31T07:22:40;100494.00;;;27.60
20733;BMP180;10527;52.124;5.196;2023-07-31T07:25:10;100495.00;;;27.60
20733;BMP180;10527;52.124;5.196;2023-07-31T07:27:37;100498.00;;;27.60
20733;BMP180;10527;52.124;5.196;2023-07-31T07:30:05;100493.00;;;27.60
20733;BMP180;10527;52.124;5.196;2023-07-31T07:32:32;100503.00;;;27.60
20733;BMP180;10527;52.124;5.196;2023-07-31T07:34:59;100493.00;;;27.60
20733;BMP180;10527;52.124;5.196;2023-07-31T07:37:26;100502.00;;;27.70
20733;BMP180;10527;52.124;5.196;2023-07-31T07:39:53;100501.00;;;27.70
20733;BMP180;10527;52.124;5.196;2023-07-31T07:42:22;100497.00;;;27.70
20733;BMP180;10527;52.124;5.196;2023-07-31T07:44:49;100502.00;;;27.70
20733;BMP180;10527;52.124;5.196;2023-07-31T07:47:16;100490.00;;;27.70
20733;BMP180;10527;52.124;5.196;2023-07-31T07:49:43;100483.00;;;27.70
20733;BMP180;10527;52.124;5.196;2023-07-31T07:52:18;100486.00;;;27.70
20733;BMP180;10527;52.124;5.196;2023-07-31T07:54:45;100485.00;;;27.70
20733;BMP180;10527;52.124;5.196;2023-07-31T07:57:12;100490.00;;;27.70
20733;BMP180;10527;52.124;5.196;2023-07-31T07:59:39;100488.00;;;27.70
20733;BMP180;10527;52.124;5.196;2023-07-31T08:02:05;100486.00;;;27.70
20733;BMP180;10527;52.124;5.196;2023-07-31T08:04:32;100480.00;;;27.70
20733;BMP180;10527;52.124;5.196;2023-07-31T08:06:59;100483.00;;;27.80
20733;BMP180;10527;52.124;5.196;2023-07-31T08:09:26;100480.00;;;27.80
20733;BMP180;10527;52.124;5.196;2023-07-31T08:11:53;100478.00;;;27.80
20733;BMP180;10527;52.124;5.196;2023-07-31T08:14:21;100476.00;;;27.80
20733;BMP180;10527;52.124;5.196;2023-07-31T08:16:47;100476.00;;;27.80
20733;BMP180;10527;52.124;5.196;2023-07-31T08:19:14;100476.00;;;27.80
20733;BMP180;10527;52.124;5.196;2023-07-31T08:21:41;100473.00;;;27.80
20733;BMP180;10527;52.124;5.196;2023-07-31T08:24:08;100464.00;;;27.80
20733;BMP180;10527;52.124;5.196;2023-07-31T08:26:35;100472.00;;;27.90
20733;BMP180;10527;52.124;5.196;2023-07-31T08:29:02;100462.00;;;27.90
20733;BMP180;10527;52.124;5.196;2023-07-31T08:31:30;100456.00;;;27.90
20733;BMP180;10527;52.124;5.196;2023-07-31T08:33:57;100460.00;;;28.00
20733;BMP180;10527;52.124;5.196;2023-07-31T08:36:26;100460.00;;;28.00
20733;BMP180;10527;52.124;5.196;2023-07-31T08:39:13;100462.00;;;28.00
20733;BMP180;10527;52.124;5.196;2023-07-31T08:41:40;100469.00;;;28.10
20733;BMP180;10527;52.124;5.196;2023-07-31T08:44:07;100464.00;;;28.10
20733;BMP180;10527;52.124;5.196;2023-07-31T08:46:40;100464.00;;;28.20
20733;BMP180;10527;52.124;5.196;2023-07-31T08:49:10;100459.00;;;28.20
20733;BMP180;10527;52.124;5.196;2023-07-31T08:51:38;100461.00;;;28.20
20733;BMP180;10527;52.124;5.196;2023-07-31T08:54:05;100455.00;;;28.20
20733;BMP180;10527;52.124;5.196;2023-07-31T08:56:32;100459.00;;;28.20
20733;BMP180;10527;52.124;5.196;2023-07-31T08:59:02;100457.00;;;28.20
20733;BMP180;10527;52.124;5.196;2023-07-31T09:01:36;100458.00;;;28.20
20733;BMP180;10527;52.124;5.196;2023-07-31T09:04:09;100458.00;;;28.20
20733;BMP180;10527;52.124;5.196;2023-07-31T09:06:43;100461.00;;;28.20
20733;BMP180;10527;52.124;5.196;2023-07-31T09:09:12;100465.00;;;28.20
20733;BMP180;10527;52.124;5.196;2023-07-31T09:11:39;100468.00;;;28.20
20733;BMP180;10527;52.124;5.196;2023-07-31T09:14:08;100476.00;;;28.30
20733;BMP180;10527;52.124;5.196;2023-07-31T09:16:35;100466.00;;;28.30
20733;BMP180;10527;52.124;5.196;2023-07-31T09:19:36;100460.00;;;28.30
20733;BMP180;10527;52.124;5.196;2023-07-31T09:22:13;100456.00;;;28.30
20733;BMP180;10527;52.124;5.196;2023-07-31T09:24:46;100446.00;;;28.40
20733;BMP180;10527;52.124;5.196;2023-07-31T09:27:12;100457.00;;;28.40
20733;BMP180;10527;52.124;5.196;2023-07-31T09:29:40;100444.00;;;28.50
20733;BMP180;10527;52.124;5.196;2023-07-31T09:32:27;100448.00;;;28.50
20733;BMP180;10527;52.124;5.196;2023-07-31T09:34:53;100442.00;;;28.50
20733;BMP180;10527;52.124;5.196;2023-07-31T09:37:20;100444.00;;;28.50
20733;BMP180;10527;52.124;5.196;2023-07-31T09:39:48;100449.00;;;28.60
20733;BMP180;10527;52.124;5.196;2023-07-31T09:42:25;100437.00;;;28.60
20733;BMP180;10527;52.124;5.196;2023-07-31T09:44:53;100442.00;;;28.60
20733;BMP180;10527;52.124;5.196;2023-07-31T09:47:23;100448.00;;;28.70
20733;BMP180;10527;52.124;5.196;2023-07-31T09:49:59;100441.00;;;28.70
20733;BMP180;10527;52.124;5.196;2023-07-31T09:52:26;100449.00;;;28.70
20733;BMP180;10527;52.124;5.196;2023-07-31T09:54:54;100449.00;;;28.70
20733;BMP180;10527;52.124;5.196;2023-07-31T09:57:22;100440.00;;;28.80
20733;BMP180;10527;52.124;5.196;2023-07-31T10:00:01;100449.00;;;28.80
20733;BMP180;10527;52.124;5.196;2023-07-31T10:02:30;100445.00;;;28.80
20733;BMP180;10527;52.124;5.196;2023-07-31T10:05:01;100451.00;;;28.90
20733;BMP180;10527;52.124;5.196;2023-07-31T10:07:43;100439.00;;;28.90
20733;BMP180;10527;52.124;5.196;2023-07-31T10:10:15;100436.00;;;28.90
20733;BMP180;10527;52.124;5.196;2023-07-31T10:12:43;100450.00;;;29.00
20733;BMP180;10527;52.124;5.196;2023-07-31T10:15:11;100444.00;;;29.00
20733;BMP180;10527;52.124;5.196;2023-07-31T10:17:38;100451.00;;;29.00
20733;BMP180;10527;52.124;5.196;2023-07-31T10:20:07;100453.00;;;29.00
20733;BMP180;10527;52.124;5.196;2023-07-31T10:22:35;100446.00;;;29.10
20733;BMP180;10527;52.124;5.196;2023-07-31T10:25:03;100459.00;;;29.10
20733;BMP180;10527;52.124;5.196;2023-07-31T10:27:30;100450.00;;;29.10
20733;BMP180;10527;52.124;5.196;2023-07-31T10:29:59;100453.00;;;29.10
20733;BMP180;10527;52.124;5.196;2023-07-31T10:32:27;100447.00;;;29.10
20733;BMP180;10527;52.124;5.196;2023-07-31T10:34:55;100440.00;;;29.10
20733;BMP180;10527;52.124;5.196;2023-07-31T10:37:28;100438.00;;;29.10
20733;BMP180;10527;52.124;5.196;2023-07-31T10:40:00;100444.00;;;29.10
20733;BMP180;10527;52.124;5.196;2023-07-31T10:42:37;100434.00;;;29.10
20733;BMP180;10527;52.124;5.196;2023-07-31T10:45:39;100443.00;;;29.10
20733;BMP180;10527;52.124;5.196;2023-07-31T10:48:17;100438.00;;;29.10
20733;BMP180;10527;52.124;5.196;2023-07-31T10:50:52;100447.00;;;29.00
20733;BMP180;10527;52.124;5.196;2023-07-31T10:53:33;100449.00;;;29.00
20733;BMP180;10527;52.124;5.196;2023-07-31T10:56:07;100444.00;;;29.00
20733;BMP180;10527;52.124;5.196;2023-07-31T10:58:36;100441.00;;;29.00
20733;BMP180;10527;52.124;5.196;2023-07-31T11:01:10;100431.00;;;29.00
20733;BMP180;10527;52.124;5.196;2023-07-31T11:03:49;100441.00;;;29.00
20733;BMP180;10527;52.124;5.196;2023-07-31T11:06:19;100450.00;;;29.00
20733;BMP180;10527;52.124;5.196;2023-07-31T11:08:50;100459.00;;;29.10
20733;BMP180;10527;52.124;5.196;2023-07-31T11:11:22;100448.00;;;29.00
20733;BMP180;10527;52.124;5.196;2023-07-31T11:13:52;100449.00;;;29.00
20733;BMP180;10527;52.124;5.196;2023-07-31T11:16:26;100440.00;;;29.10
20733;BMP180;10527;52.124;5.196;2023-07-31T11:18:54;100447.00;;;29.10
20733;BMP180;10527;52.124;5.196;2023-07-31T11:21:24;100439.00;;;29.10
20733;BMP180;10527;52.124;5.196;2023-07-31T11:23:56;100430.00;;;29.10
20733;BMP180;10527;52.124;5.196;2023-07-31T11:26:33;100441.00;;;29.10
20733;BMP180;10527;52.124;5.196;2023-07-31T11:29:00;100436.00;;;29.10
20733;BMP180;10527;52.124;5.196;2023-07-31T11:31:27;100431.00;;;29.10
20733;BMP180;10527;52.124;5.196;2023-07-31T11:34:07;100434.00;;;29.20
20733;BMP180;10527;52.124;5.196;2023-07-31T11:37:00;100429.00;;;29.20
20733;BMP180;10527;52.124;5.196;2023-07-31T11:39:27;100439.00;;;29.10
20733;BMP180;10527;52.124;5.196;2023-07-31T11:41:59;100429.00;;;29.10
20733;BMP180;10527;52.124;5.196;2023-07-31T11:44:37;100428.00;;;29.10
20733;BMP180;10527;52.124;5.196;2023-07-31T11:47:04;100422.00;;;29.10
20733;BMP180;10527;52.124;5.196;2023-07-31T11:49:31;100424.00;;;29.10
20733;BMP180;10527;52.124;5.196;2023-07-31T11:52:02;100413.00;;;29.10
20733;BMP180;10527;52.124;5.196;2023-07-31T11:54:29;100422.00;;;29.10
20733;BMP180;10527;52.124;5.196;2023-07-31T11:56:56;100426.00;;;29.10
20733;BMP180;10527;52.124;5.196;2023-07-31T11:59:24;100419.00;;;29.10
20733;BMP180;10527;52.124;5.196;2023-07-31T12:01:51;100424.00;;;29.20
20733;BMP180;10527;52.124;5.196;2023-07-31T12:04:24;100425.00;;;29.20
20733;BMP180;10527;52.124;5.196;2023-07-31T12:07:01;100425.00;;;29.20
20733;BMP180;10527;52.124;5.196;2023-07-31T12:09:28;100419.00;;;29.20
20733;BMP180;10527;52.124;5.196;2023-07-31T12:11:58;100428.00;;;29.20
20733;BMP180;10527;52.124;5.196;2023-07-31T12:14:28;100426.00;;;29.20
20733;BMP180;10527;52.124;5.196;2023-07-31T12:17:04;100426.00;;;29.20
20733;BMP180;10527;52.124;5.196;2023-07-31T12:19:31;100426.00;;;29.20
20733;BMP180;10527;52.124;5.196;2023-07-31T12:21:59;100425.00;;;29.20
20733;BMP180;10527;52.124;5.196;2023-07-31T12:24:27;100413.00;;;29.20
20733;BMP180;10527;52.124;5.196;2023-07-31T12:26:54;100404.00;;;29.20
20733;BMP180;10527;52.124;5.196;2023-07-31T12:29:22;100404.00;;;29.20
20733;BMP180;10527;52.124;5.196;2023-07-31T12:31:52;100397.00;;;29.20
20733;BMP180;10527;52.124;5.196;2023-07-31T12:34:20;100391.00;;;29.20
20733;BMP180;10527;52.124;5.196;2023-07-31T12:36:48;100398.00;;;29.30
20733;BMP180;10527;52.124;5.196;2023-07-31T12:39:20;100397.00;;;29.30
20733;BMP180;10527;52.124;5.196;2023-07-31T12:41:47;100397.00;;;29.30
20733;BMP180;10527;52.124;5.196;2023-07-31T12:44:14;100391.00;;;29.30
20733;BMP180;10527;52.124;5.196;2023-07-31T12:46:41;100392.00;;;29.30
20733;BMP180;10527;52.124;5.196;2023-07-31T12:49:08;100387.00;;;29.30
20733;BMP180;10527;52.124;5.196;2023-07-31T12:51:37;100384.00;;;29.30
20733;BMP180;10527;52.124;5.196;2023-07-31T12:54:04;100365.00;;;29.40
20733;BMP180;10527;52.124;5.196;2023-07-31T12:56:31;100372.00;;;29.40
20733;BMP180;10527;52.124;5.196;2023-07-31T12:58:58;100373.00;;;29.50
20733;BMP180;10527;52.124;5.196;2023-07-31T13:01:24;100367.00;;;29.50
20733;BMP180;10527;52.124;5.196;2023-07-31T13:03:54;100376.00;;;29.60
20733;BMP180;10527;52.124;5.196;2023-07-31T13:06:21;100377.00;;;29.60
20733;BMP180;10527;52.124;5.196;2023-07-31T13:08:51;100383.00;;;29.60
20733;BMP180;10527;52.124;5.196;2023-07-31T13:11:21;100374.00;;;29.60
20733;BMP180;10527;52.124;5.196;2023-07-31T13:13:48;100375.00;;;29.70
20733;BMP180;10527;52.124;5.196;2023-07-31T13:16:18;100367.00;;;29.70
20733;BMP180;10527;52.124;5.196;2023-07-31T13:18:45;100365.00;;;29.70
20733;BMP180;10527;52.124;5.196;2023-07-31T13:21:18;100369.00;;;29.80
20733;BMP180;10527;52.124;5.196;2023-07-31T13:23:45;100370.00;;;29.80
20733;BMP180;10527;52.124;5.196;2023-07-31T13:26:12;100351.00;;;29.80
20733;BMP180;10527;52.124;5.196;2023-07-31T13:28:39;100360.00;;;29.80
20733;BMP180;10527;52.124;5.196;2023-07-31T13:31:08;100349.00;;;29.80
20733;BMP180;10527;52.124;5.196;2023-07-31T13:33:41;100351.00;;;29.80
20733;BMP180;10527;52.124;5.196;2023-07-31T13:36:10;100342.00;;;29.80
20733;BMP180;10527;52.124;5.196;2023-07-31T13:38:38;100337.00;;;29.80
20733;BMP180;10527;52.124;5.196;2023-07-31T13:41:05;100342.00;;;29.90
20733;BMP180;10527;52.124;5.196;2023-07-31T13:43:32;100338.00;;;29.90
20733;BMP180;10527;52.124;5.196;2023-07-31T13:46:02;100342.00;;;29.90
20733;BMP180;10527;52.124;5.196;2023-07-31T13:48:36;100340.00;;;29.90
20733;BMP180;10527;52.124;5.196;2023-07-31T13:51:03;100342.00;;;29.90
20733;BMP180;10527;52.124;5.196;2023-07-31T13:53:31;100336.00;;;29.90
20733;BMP180;10527;52.124;5.196;2023-07-31T13:55:58;100342.00;;;29.90
20733;BMP180;10527;52.124;5.196;2023-07-31T13:58:25;100337.00;;;29.80
20733;BMP180;10527;52.124;5.196;2023-07-31T14:00:59;100331.00;;;29.80
20733;BMP180;10527;52.124;5.196;2023-07-31T14:03:26;100338.00;;;29.80
20733;BMP180;10527;52.124;5.196;2023-07-31T14:05:53;100332.00;;;29.70